Time;durP1;ratioP1;P1;durP2;ratioP2;P2;SDS_P1;SDS_P2;PMS_P1;PMS_P2;Temp;Humidity;BMP_temperature;BMP_pressure;BME280_temperature;BME280_humidity;BME280_pressure;Samples;Min_cycle;Max_cycle;Signal;HPM_P1;HPM_P2
2023/07/01 00:01:30;;;;;;;7.72;1.25;;;17.20;99.90;;;;;;4975236;28;20049;-71
2023/07/01 00:03:56;;;;;;;4.97;1.00;;;17.20;99.90;;;;;;4979232;28;20534;-71
2023/07/01 00:06:22;;;;;;;10.48;1.33;;;17.20;99.90;;;;;;4980946;28;20046;-71
2023/07/01 00:08:48;;;;;;;7.53;1.48;;;17.20;99.90;;;;;;4976149;28;20050;-71
2023/07/01 00:11:13;;;;;;;6.55;1.10;;;17.20;99.90;;;;;;4952314;28;20721;-71
2023/07/01 00:13:39;;;;;;;4.80;1.05;;;17.20;99.90;;;;;;4978663;28;20038;-72
2023/07/01 00:16:07;;;;;;;7.15;1.02;;;17.20;99.90;;;;;;4974837;28;20049;-72
2023/07/01 00:18:33;;;;;;;10.70;1.60;;;17.20;99.90;;;;;;4984716;28;20719;-71
2023/07/01 00:20:59;;;;;;;6.43;0.93;;;17.20;99.90;;;;;;4978578;28;20050;-71
2023/07/01 00:23:24;;;;;;;6.57;0.90;;;17.20;99.90;;;;;;4978671;28;21130;-71
2023/07/01 00:25:50;;;;;;;5.20;1.17;;;17.20;99.90;;;;;;4953917;28;20042;-71
2023/07/01 00:28:16;;;;;;;5.72;1.13;;;17.20;99.90;;;;;;4974313;28;20062;-72
2023/07/01 00:30:43;;;;;;;9.15;1.05;;;17.20;99.90;;;;;;4986623;28;20042;-71
2023/07/01 00:33:09;;;;;;;5.57;0.90;;;17.20;99.90;;;;;;4978155;28;20512;-72
2023/07/01 00:35:35;;;;;;;5.03;0.90;;;17.20;99.90;;;;;;4977584;28;20050;-71
2023/07/01 00:38:01;;;;;;;5.15;0.90;;;17.20;99.90;;;;;;4983466;28;20046;-70
2023/07/01 00:40:26;;;;;;;7.90;1.20;;;17.30;99.90;;;;;;4987328;28;20602;-70
2023/07/01 00:42:52;;;;;;;4.43;1.02;;;17.30;99.90;;;;;;4980644;28;20042;-70
2023/07/01 00:45:18;;;;;;;3.45;0.90;;;17.30;99.90;;;;;;4982089;28;20038;-70
2023/07/01 00:47:44;;;;;;;6.53;1.25;;;17.30;99.90;;;;;;4980868;28;20106;-72
2023/07/01 00:50:11;;;;;;;7.57;0.70;;;17.30;99.90;;;;;;4979293;28;20692;-70
2023/07/01 00:52:42;;;;;;;5.25;0.80;;;17.30;99.90;;;;;;4977806;28;20052;-71
2023/07/01 00:55:09;;;;;;;4.45;0.85;;;17.40;99.90;;;;;;4976138;28;20053;-70
2023/07/01 00:57:35;;;;;;;5.43;0.90;;;17.40;99.90;;;;;;4985377;28;20061;-72
2023/07/01 01:00:04;;;;;;;7.28;1.00;;;17.40;99.90;;;;;;4969768;28;20046;-72
2023/07/01 01:02:37;;;;;;;4.65;0.82;;;17.40;99.90;;;;;;4980474;28;20625;-70
2023/07/01 01:05:13;;;;;;;;;;;17.40;99.90;;;;;;4977231;28;20052;-72
2023/07/01 01:07:52;;;;;;;8.98;1.00;;;17.30;99.90;;;;;;4986315;28;19918;-70
2023/07/01 01:10:22;;;;;;;5.20;0.73;;;17.40;99.90;;;;;;4978122;28;20069;-70
2023/07/01 01:12:55;;;;;;;5.22;0.82;;;17.40;99.90;;;;;;4980042;28;20653;-71
2023/07/01 01:15:21;;;;;;;6.82;0.90;;;17.40;99.90;;;;;;4977775;28;20047;-70
2023/07/01 01:17:50;;;;;;;4.93;0.80;;;17.40;99.90;;;;;;4979225;28;20068;-71
2023/07/01 01:20:20;;;;;;;5.60;0.80;;;17.40;99.90;;;;;;4984530;28;20048;-68
2023/07/01 01:22:55;;;;;;;2.88;0.70;;;17.40;99.90;;;;;;4980597;28;20073;-69
2023/07/01 01:25:28;;;;;;;2.75;0.65;;;17.40;99.90;;;;;;4965093;28;20715;-71
2023/07/01 01:27:56;;;;;;;5.63;0.88;;;17.40;99.90;;;;;;4979929;28;20575;-71
2023/07/01 01:30:24;;;;;;;6.18;0.90;;;17.40;99.90;;;;;;4978368;28;20125;-71
2023/07/01 01:32:51;;;;;;;10.30;1.10;;;17.40;99.90;;;;;;4981087;28;20060;-72
2023/07/01 01:35:17;;;;;;;6.45;0.95;;;17.40;99.90;;;;;;4971138;28;20491;-70
2023/07/01 01:37:49;;;;;;;4.50;0.75;;;17.40;99.90;;;;;;4983702;28;20301;-71
2023/07/01 01:40:23;;;;;;;5.22;0.85;;;17.30;99.90;;;;;;4980778;28;20054;-71
2023/07/01 01:42:55;;;;;;;9.27;1.00;;;17.40;99.90;;;;;;4982750;28;20045;-71
2023/07/01 01:45:21;;;;;;;6.22;1.20;;;17.30;99.90;;;;;;4985627;28;20050;-71
2023/07/01 01:47:50;;;;;;;6.82;1.00;;;17.40;99.90;;;;;;4996396;28;20046;-72
2023/07/01 01:50:19;;;;;;;4.93;1.23;;;17.40;99.90;;;;;;4986834;28;20501;-73
2023/07/01 01:52:48;;;;;;;8.05;1.45;;;17.30;99.90;;;;;;4984952;28;20053;-71
2023/07/01 01:55:17;;;;;;;3.90;0.82;;;17.20;99.90;;;;;;4981750;28;20042;-72
2023/07/01 01:57:44;;;;;;;4.53;1.08;;;17.10;1.00;;;;;;4981702;28;20785;-71
2023/07/01 02:00:13;;;;;;;5.57;1.27;;;16.90;16.20;;;;;;4988401;28;20034;-71
2023/07/01 02:02:39;;;;;;;5.53;1.20;;;16.80;43.80;;;;;;4979683;28;20038;-69
2023/07/01 02:05:05;;;;;;;5.47;1.02;;;16.70;99.90;;;;;;4981054;28;20729;-70
2023/07/01 02:07:31;;;;;;;11.55;1.25;;;16.60;99.90;;;;;;4983821;28;20077;-70
2023/07/01 02:09:56;;;;;;;8.10;1.40;;;16.60;99.90;;;;;;4982944;28;20899;-71
2023/07/01 02:12:22;;;;;;;9.82;1.80;;;16.50;99.90;;;;;;4988637;28;20093;-70
2023/07/01 02:14:48;;;;;;;7.50;1.20;;;16.50;99.90;;;;;;4978914;28;20144;-71
2023/07/01 02:17:13;;;;;;;7.25;1.17;;;16.40;99.90;;;;;;4979081;28;20056;-71
2023/07/01 02:19:39;;;;;;;8.73;1.38;;;16.40;99.90;;;;;;4985848;28;20557;-70
2023/07/01 02:22:05;;;;;;;7.03;1.67;;;16.30;99.90;;;;;;4985524;28;20085;-71
2023/07/01 02:24:31;;;;;;;7.93;1.80;;;16.20;99.90;;;;;;4983924;28;20038;-71
2023/07/01 02:26:56;;;;;;;6.75;2.03;;;16.10;99.90;;;;;;4984987;28;20056;-72
2023/07/01 02:29:22;;;;;;;9.00;1.80;;;16.00;99.90;;;;;;4982264;28;20073;-71
2023/07/01 02:31:48;;;;;;;5.95;1.65;;;15.90;99.90;;;;;;4985247;28;20138;-70
2023/07/01 02:34:14;;;;;;;7.32;2.65;;;16.00;1.00;;;;;;4987309;28;20042;-71
2023/07/01 02:36:42;;;;;;;6.70;2.33;;;15.90;1.00;;;;;;4974014;28;20636;-72
2023/07/01 02:39:07;;;;;;;8.98;2.20;;;15.80;1.00;;;;;;4983149;28;20039;-71
2023/07/01 02:41:33;;;;;;;7.50;2.25;;;15.80;1.00;;;;;;4978537;28;20726;-70
2023/07/01 02:43:59;;;;;;;7.90;2.40;;;15.80;1.00;;;;;;4986419;28;20038;-71
2023/07/01 02:46:27;;;;;;;6.22;2.45;;;15.70;5.90;;;;;;4974560;28;20031;-71
2023/07/01 02:48:52;;;;;;;9.25;2.60;;;15.70;8.40;;;;;;4982453;28;20037;-70
2023/07/01 02:51:18;;;;;;;8.13;2.67;;;15.70;22.90;;;;;;4980300;28;20104;-72
2023/07/01 02:53:44;;;;;;;8.32;2.90;;;15.70;28.10;;;;;;4978022;28;20106;-70
2023/07/01 02:56:10;;;;;;;8.85;3.03;;;15.70;69.20;;;;;;4978087;28;20038;-70
2023/07/01 02:58:36;;;;;;;7.78;2.50;;;15.70;69.60;;;;;;4974264;28;20062;-69
2023/07/01 03:01:03;;;;;;;8.75;2.97;;;15.70;57.10;;;;;;4981596;28;20509;-71
2023/07/01 03:03:29;;;;;;;9.23;3.22;;;15.70;51.40;;;;;;4972286;28;20068;-72
2023/07/01 03:05:54;;;;;;;8.80;2.90;;;15.70;89.30;;;;;;4980012;28;20700;-71
2023/07/01 03:08:20;;;;;;;7.68;2.38;;;15.70;93.20;;;;;;4985070;28;20530;-71
2023/07/01 03:10:46;;;;;;;7.38;2.60;;;15.70;90.50;;;;;;4983537;28;20030;-72
2023/07/01 03:13:11;;;;;;;8.60;2.50;;;15.80;87.30;;;;;;4983636;28;20111;-71
2023/07/01 03:15:37;;;;;;;8.07;2.40;;;15.80;46.60;;;;;;4989993;28;20060;-72
2023/07/01 03:18:03;;;;;;;5.90;2.28;;;15.80;14.30;;;;;;4981135;28;20398;-71
2023/07/01 03:20:28;;;;;;;8.77;2.35;;;15.90;1.00;;;;;;4981579;28;20058;-70
2023/07/01 03:22:56;;;;;;;6.57;2.70;;;15.90;1.00;;;;;;4977829;28;20101;-71
2023/07/01 03:25:23;;;;;;;4.57;2.30;;;15.90;1.00;;;;;;4977755;28;20053;-72
2023/07/01 03:27:50;;;;;;;7.15;2.80;;;16.00;1.00;;;;;;4981013;28;20058;-72
2023/07/01 03:30:17;;;;;;;6.00;2.33;;;16.00;1.00;;;;;;4980482;28;20529;-71
2023/07/01 03:32:45;;;;;;;7.65;2.53;;;16.10;1.00;;;;;;4980311;28;20601;-71
2023/07/01 03:35:12;;;;;;;8.30;2.80;;;16.10;1.00;;;;;;4986563;28;20048;-72
2023/07/01 03:37:39;;;;;;;5.10;2.80;;;16.20;1.00;;;;;;4974212;28;20026;-71
2023/07/01 03:40:10;;;;;;;6.57;2.70;;;16.20;99.90;;;;;;4990461;28;20045;-72
2023/07/01 03:42:45;;;;;;;7.90;3.00;;;16.20;99.90;;;;;;4977154;28;20132;-70
2023/07/01 03:45:12;;;;;;;6.70;2.45;;;16.20;99.90;;;;;;4980036;28;20038;-71
2023/07/01 03:47:41;;;;;;;6.47;2.80;;;16.20;99.90;;;;;;4981965;28;20996;-71
2023/07/01 03:50:08;;;;;;;6.38;2.50;;;16.20;99.90;;;;;;4978914;28;20119;-71
2023/07/01 03:52:37;;;;;;;7.15;2.47;;;16.20;99.90;;;;;;4979441;28;20049;-73
2023/07/01 03:55:07;;;;;;;5.72;2.47;;;16.20;99.90;;;;;;4976313;28;20049;-70
2023/07/01 03:57:34;;;;;;;7.90;2.80;;;16.20;99.90;;;;;;4962284;28;20495;-69
2023/07/01 04:00:00;;;;;;;5.65;2.42;;;16.30;99.90;;;;;;4980028;28;20045;-72
2023/07/01 04:02:26;;;;;;;5.95;2.30;;;16.30;99.90;;;;;;4981020;28;20046;-70
2023/07/01 04:04:52;;;;;;;6.63;2.35;;;16.40;99.90;;;;;;4976151;28;20057;-72
2023/07/01 04:07:21;;;;;;;7.43;2.35;;;16.40;99.90;;;;;;4979607;28;20096;-70
2023/07/01 04:09:50;;;;;;;4.85;2.30;;;16.40;99.90;;;;;;4975222;28;20060;-71
2023/07/01 04:12:16;;;;;;;7.75;2.70;;;16.40;99.90;;;;;;4983545;28;20046;-72
2023/07/01 04:14:42;;;;;;;5.88;2.10;;;16.40;99.90;;;;;;4979588;28;20694;-71
2023/07/01 04:17:08;;;;;;;7.00;2.22;;;16.40;99.90;;;;;;4980690;28;20142;-72
2023/07/01 04:19:33;;;;;;;5.47;2.30;;;16.40;99.90;;;;;;4981114;28;20070;-71
2023/07/01 04:21:59;;;;;;;5.30;2.35;;;16.40;99.90;;;;;;4982168;28;20046;-71
2023/07/01 04:24:25;;;;;;;4.45;2.13;;;16.30;99.90;;;;;;4991727;28;20034;-71
2023/07/01 04:26:52;;;;;;;6.18;2.30;;;16.30;99.90;;;;;;4968830;28;20073;-71
2023/07/01 04:29:18;;;;;;;3.30;1.92;;;16.30;99.90;;;;;;4983801;28;20053;-72
2023/07/01 04:31:43;;;;;;;7.03;2.03;;;16.30;99.90;;;;;;4982056;28;20669;-71
2023/07/01 04:34:09;;;;;;;6.22;2.40;;;16.30;99.90;;;;;;4988511;28;20050;-70
2023/07/01 04:36:35;;;;;;;5.35;2.30;;;16.30;99.90;;;;;;4974344;28;20336;-71
2023/07/01 04:39:00;;;;;;;5.18;2.22;;;16.20;99.90;;;;;;4979581;28;20057;-70
2023/07/01 04:41:26;;;;;;;4.38;2.08;;;16.20;1.00;;;;;;4980015;28;20132;-71
2023/07/01 04:43:52;;;;;;;4.93;2.33;;;16.20;1.00;;;;;;4985379;28;20030;-72
2023/07/01 04:46:18;;;;;;;5.35;1.90;;;16.20;1.00;;;;;;4984606;28;20180;-72
2023/07/01 04:48:43;;;;;;;7.05;2.13;;;16.20;1.00;;;;;;4980297;28;20046;-71
2023/07/01 04:51:09;;;;;;;4.95;2.10;;;16.20;1.00;;;;;;4979022;28;20080;-70
2023/07/01 04:53:38;;;;;;;5.45;2.20;;;16.20;1.00;;;;;;4982857;28;20697;-71
2023/07/01 04:56:04;;;;;;;7.68;2.17;;;16.20;1.00;;;;;;4982453;28;20082;-70
2023/07/01 04:58:30;;;;;;;7.78;2.40;;;16.30;1.00;;;;;;4989395;28;20050;-71
2023/07/01 05:00:56;;;;;;;6.97;2.30;;;16.30;1.00;;;;;;4980147;28;20528;-73
2023/07/01 05:03:21;;;;;;;4.88;2.28;;;16.30;1.00;;;;;;4963708;28;20046;-72
2023/07/01 05:05:47;;;;;;;5.97;2.30;;;16.30;1.00;;;;;;4984354;28;20042;-73
2023/07/01 05:08:13;;;;;;;7.47;2.35;;;16.30;1.00;;;;;;4978130;28;20448;-72
2023/07/01 05:10:38;;;;;;;6.43;2.20;;;16.30;1.00;;;;;;4981433;28;20054;-70
2023/07/01 05:13:05;;;;;;;6.88;2.38;;;16.30;1.00;;;;;;4980169;28;20050;-72
2023/07/01 05:15:31;;;;;;;4.78;2.40;;;16.30;1.00;;;;;;4955047;28;20050;-71
2023/07/01 05:17:56;;;;;;;5.63;2.15;;;16.30;1.00;;;;;;4976721;28;20848;-72
2023/07/01 05:20:22;;;;;;;6.90;2.58;;;16.40;1.00;;;;;;4976143;28;20495;-72
2023/07/01 05:22:48;;;;;;;6.32;2.40;;;16.40;1.00;;;;;;4977629;28;20065;-72
2023/07/01 05:25:13;;;;;;;7.22;2.75;;;16.40;1.00;;;;;;4978153;28;20057;-71
2023/07/01 05:27:39;;;;;;;4.82;2.83;;;16.40;4.10;;;;;;4972746;28;20054;-71
2023/07/01 05:30:06;;;;;;;5.82;2.60;;;16.50;1.00;;;;;;4978734;28;20130;-71
2023/07/01 05:32:31;;;;;;;7.07;2.70;;;16.50;1.00;;;;;;4975936;28;20508;-71
2023/07/01 05:34:57;;;;;;;4.57;2.78;;;16.50;21.30;;;;;;4977228;28;20034;-71
2023/07/01 05:37:23;;;;;;;6.75;2.45;;;16.50;13.40;;;;;;4980877;28;20069;-70
2023/07/01 05:39:48;;;;;;;5.63;2.55;;;16.50;16.30;;;;;;4979023;28;20428;-73
2023/07/01 05:42:14;;;;;;;6.53;2.78;;;16.50;38.60;;;;;;4970670;28;20046;-69
2023/07/01 05:44:40;;;;;;;6.97;2.80;;;16.50;50.10;;;;;;4977600;28;20050;-71
2023/07/01 05:47:06;;;;;;;7.20;3.03;;;16.50;61.00;;;;;;4982236;28;20038;-72
2023/07/01 05:49:31;;;;;;;4.75;3.00;;;16.50;61.40;;;;;;4983753;28;20223;-71
2023/07/01 05:51:57;;;;;;;6.25;2.95;;;16.50;54.80;;;;;;4979619;28;20042;-71
2023/07/01 05:54:23;;;;;;;5.70;3.08;;;16.50;63.00;;;;;;4979321;28;20409;-70
2023/07/01 05:56:48;;;;;;;6.07;3.15;;;16.50;80.30;;;;;;4978107;28;20229;-70
2023/07/01 05:59:14;;;;;;;5.80;2.90;;;16.50;90.70;;;;;;4987101;28;20144;-71
2023/07/01 06:01:40;;;;;;;6.63;2.95;;;16.60;85.20;;;;;;4969555;28;20113;-70
2023/07/01 06:04:06;;;;;;;6.00;3.03;;;16.50;99.90;;;;;;4980951;28;20084;-71
2023/07/01 06:06:31;;;;;;;6.05;2.70;;;16.60;99.90;;;;;;4978070;28;20048;-70
2023/07/01 06:08:57;;;;;;;7.82;2.70;;;16.60;99.90;;;;;;4976309;28;20991;-71
2023/07/01 06:11:23;;;;;;;4.65;2.92;;;16.60;93.30;;;;;;4971639;28;20046;-71
2023/07/01 06:13:49;;;;;;;5.88;2.80;;;16.70;98.20;;;;;;4981745;28;20050;-71
2023/07/01 06:16:15;;;;;;;6.13;2.88;;;16.70;81.30;;;;;;4973154;28;20882;-71
2023/07/01 06:18:41;;;;;;;8.18;3.20;;;16.80;78.60;;;;;;4989590;28;20050;-70
2023/07/01 06:21:08;;;;;;;7.03;3.03;;;16.80;84.90;;;;;;4983073;28;20828;-72
2023/07/01 06:23:37;;;;;;;8.38;3.15;;;16.80;74.30;;;;;;4984660;28;20058;-72
2023/07/01 06:26:03;;;;;;;5.00;3.08;;;16.90;95.60;;;;;;4987320;28;20488;-71
2023/07/01 06:28:29;;;;;;;5.13;2.92;;;16.90;60.50;;;;;;4983500;28;20074;-70
2023/07/01 06:30:55;;;;;;;6.05;2.95;;;16.90;62.70;;;;;;4983839;28;20058;-71
2023/07/01 06:33:21;;;;;;;8.05;3.78;;;16.90;99.90;;;;;;4979845;28;20038;-71
2023/07/01 06:35:47;;;;;;;8.20;3.42;;;16.80;99.90;;;;;;4990148;28;20606;-71
2023/07/01 06:38:12;;;;;;;10.55;3.72;;;16.80;99.90;;;;;;4981151;28;20158;-71
2023/07/01 06:40:38;;;;;;;7.35;4.03;;;16.80;99.90;;;;;;4983385;28;20136;-73
2023/07/01 06:43:04;;;;;;;8.23;3.95;;;16.90;99.90;;;;;;4978832;28;20065;-71
2023/07/01 06:45:30;;;;;;;7.07;3.33;;;16.90;99.90;;;;;;4978197;28;20092;-71
2023/07/01 06:47:57;;;;;;;8.95;4.70;;;16.70;99.90;;;;;;4978850;28;20235;-70
2023/07/01 06:50:23;;;;;;;10.23;5.10;;;16.60;99.90;;;;;;4974666;28;20653;-70
2023/07/01 06:52:49;;;;;;;10.15;5.00;;;16.50;99.90;;;;;;4978406;28;20076;-71
2023/07/01 06:55:15;;;;;;;9.07;5.05;;;16.40;99.90;;;;;;4981958;28;20543;-71
2023/07/01 06:57:42;;;;;;;11.38;5.70;;;16.30;1.00;;;;;;4978295;28;20046;-70
2023/07/01 07:00:10;;;;;;;13.35;6.45;;;16.20;1.00;;;;;;4980395;28;20041;-71
2023/07/01 07:02:36;;;;;;;9.55;6.25;;;16.30;1.00;;;;;;4960104;28;20038;-68
2023/07/01 07:05:05;;;;;;;14.10;8.70;;;16.20;99.90;;;;;;4979803;28;20042;-69
2023/07/01 07:07:32;;;;;;;8.77;6.22;;;16.20;99.90;;;;;;4982759;28;20087;-72
2023/07/01 07:09:57;;;;;;;11.93;6.82;;;16.20;99.90;;;;;;4971455;28;20038;-72
2023/07/01 07:12:23;;;;;;;8.38;6.40;;;16.20;99.90;;;;;;4981746;28;20045;-72
2023/07/01 07:14:49;;;;;;;9.95;6.25;;;16.30;99.90;;;;;;4976900;28;20069;-71
2023/07/01 07:17:14;;;;;;;8.60;5.97;;;16.30;99.90;;;;;;4977427;28;21032;-69
2023/07/01 07:19:40;;;;;;;9.10;6.78;;;16.40;99.90;;;;;;4968430;28;20046;-72
2023/07/01 07:22:06;;;;;;;9.45;6.35;;;16.50;99.90;;;;;;4980717;28;20490;-71
2023/07/01 07:24:32;;;;;;;9.88;5.93;;;16.50;99.90;;;;;;4968108;28;20054;-70
2023/07/01 07:27:00;;;;;;;6.85;5.47;;;16.50;99.90;;;;;;4980447;28;20380;-70
2023/07/01 07:29:30;;;;;;;6.80;5.88;;;16.60;99.90;;;;;;4980472;28;20058;-70
2023/07/01 07:31:57;;;;;;;10.32;6.03;;;16.60;99.90;;;;;;4980379;28;20081;-69
2023/07/01 07:34:23;;;;;;;4.85;4.45;;;16.50;99.90;;;;;;4967311;28;20109;-70
2023/07/01 07:36:49;;;;;;;8.02;7.07;;;16.60;99.90;;;;;;4974599;28;20043;-70
2023/07/01 07:39:16;;;;;;;7.03;5.88;;;16.60;99.90;;;;;;4978429;28;20350;-72
2023/07/01 07:41:42;;;;;;;6.65;5.88;;;16.60;99.90;;;;;;4983561;28;20077;-70
2023/07/01 07:44:08;;;;;;;7.70;6.35;;;16.50;99.90;;;;;;4989149;28;20049;-73
2023/07/01 07:46:35;;;;;;;7.90;6.65;;;16.60;99.90;;;;;;4976780;28;20038;-71
2023/07/01 07:49:01;;;;;;;7.82;5.90;;;16.60;99.90;;;;;;4977121;28;20053;-71
2023/07/01 07:51:27;;;;;;;7.70;6.38;;;16.70;99.90;;;;;;4975287;28;20050;-71
2023/07/01 07:53:54;;;;;;;6.97;6.28;;;16.70;99.90;;;;;;4978508;28;20117;-70
2023/07/01 07:56:20;;;;;;;6.68;5.53;;;16.80;99.90;;;;;;4986170;28;20053;-71
2023/07/01 07:58:45;;;;;;;6.60;5.93;;;17.00;99.90;;;;;;4983609;28;20034;-71
2023/07/01 08:01:12;;;;;;;8.07;6.97;;;16.90;99.90;;;;;;4972837;28;20129;-70
2023/07/01 08:03:38;;;;;;;7.90;7.13;;;16.90;99.90;;;;;;4977075;28;20583;-71
2023/07/01 08:06:04;;;;;;;6.47;5.88;;;16.90;99.90;;;;;;4978537;28;20076;-70
2023/07/01 08:08:30;;;;;;;6.45;5.85;;;16.90;99.90;;;;;;4982818;28;20030;-71
2023/07/01 08:10:58;;;;;;;5.80;5.25;;;17.20;99.90;;;;;;4985460;28;20065;-71
2023/07/01 08:13:24;;;;;;;5.93;5.43;;;17.10;99.90;;;;;;4986123;28;20041;-71
2023/07/01 08:15:50;;;;;;;6.25;5.75;;;17.10;99.90;;;;;;4987259;28;20108;-70
2023/07/01 08:18:16;;;;;;;6.47;4.85;;;17.10;99.90;;;;;;4983901;28;20480;-70
2023/07/01 08:20:44;;;;;;;5.85;4.68;;;17.30;99.90;;;;;;4986468;28;20044;-72
2023/07/01 08:23:10;;;;;;;6.28;5.70;;;17.30;99.90;;;;;;4970720;28;20722;-72
2023/07/01 08:25:36;;;;;;;5.88;5.03;;;17.50;99.90;;;;;;4975612;28;20082;-71
2023/07/01 08:28:01;;;;;;;8.48;5.32;;;17.50;99.90;;;;;;4982709;28;20086;-71
2023/07/01 08:30:27;;;;;;;3.88;3.58;;;17.50;99.90;;;;;;4985714;28;20058;-71
2023/07/01 08:32:53;;;;;;;4.47;4.07;;;17.60;99.90;;;;;;4981599;28;20187;-71
2023/07/01 08:35:19;;;;;;;4.93;4.10;;;17.50;99.90;;;;;;4975110;28;20057;-71
2023/07/01 08:37:44;;;;;;;4.30;3.42;;;17.70;99.90;;;;;;4984622;28;20046;-70
2023/07/01 08:40:11;;;;;;;4.45;4.00;;;17.70;99.90;;;;;;4981420;28;20073;-70
2023/07/01 08:42:59;;;;;;;4.18;3.78;;;17.80;99.90;;;;;;4987763;28;20134;-71
2023/07/01 08:45:25;;;;;;;3.80;3.50;;;17.70;99.90;;;;;;4974389;28;20165;-72
2023/07/01 08:48:00;;;;;;;4.10;3.80;;;17.70;99.90;;;;;;4990623;28;20136;-70
2023/07/01 08:50:34;;;;;;;4.43;4.03;;;17.60;99.90;;;;;;4971596;28;20043;-71
2023/07/01 08:53:05;;;;;;;5.47;4.95;;;17.50;99.90;;;;;;4970112;28;20050;-72
2023/07/01 08:55:32;;;;;;;6.03;5.30;;;17.30;99.90;;;;;;4977071;28;20046;-72
2023/07/01 08:57:57;;;;;;;5.72;5.30;;;17.30;99.90;;;;;;4948878;28;20041;-71
2023/07/01 09:00:24;;;;;;;5.82;5.22;;;17.30;99.90;;;;;;4977111;28;20561;-71
2023/07/01 09:02:51;;;;;;;6.70;6.20;;;17.20;99.90;;;;;;4983784;28;20037;-70
2023/07/01 09:05:17;;;;;;;6.50;6.00;;;17.40;99.90;;;;;;4978648;28;20046;-72
2023/07/01 09:07:42;;;;;;;7.22;6.68;;;17.40;99.90;;;;;;4977346;28;20050;-71
2023/07/01 09:10:13;;;;;;;7.15;6.55;;;17.40;99.90;;;;;;4982581;28;20046;-69
2023/07/01 09:12:38;;;;;;;6.85;6.25;;;17.30;99.90;;;;;;4984591;28;20100;-72
2023/07/01 09:15:06;;;;;;;7.28;6.57;;;17.30;99.90;;;;;;4988934;28;20861;-71
2023/07/01 09:17:37;;;;;;;6.13;5.63;;;17.40;99.90;;;;;;4983035;28;20038;-71
2023/07/01 09:20:08;;;;;;;6.15;5.65;;;17.60;99.90;;;;;;4988514;28;20108;-72
2023/07/01 09:22:36;;;;;;;6.20;5.80;;;17.40;99.90;;;;;;4981949;28;20172;-72
2023/07/01 09:25:02;;;;;;;7.10;6.50;;;17.70;99.90;;;;;;4983051;28;20047;-70
2023/07/01 09:27:46;;;;;;;7.20;6.25;;;17.80;99.90;;;;;;4988264;28;20085;-72
2023/07/01 09:30:25;;;;;;;5.70;5.20;;;17.90;99.90;;;;;;4992013;28;20096;-72
2023/07/01 09:32:51;;;;;;;6.13;5.63;;;17.80;99.90;;;;;;4987870;28;20107;-71
2023/07/01 09:35:17;;;;;;;5.45;5.10;;;18.00;99.90;;;;;;4987173;28;20048;-70
2023/07/01 09:37:43;;;;;;;5.28;4.88;;;18.00;99.90;;;;;;4984146;28;20042;-70
2023/07/01 09:40:19;;;;;;;5.47;5.07;;;17.80;99.90;;;;;;4974940;28;20058;-70
2023/07/01 09:42:52;;;;;;;4.38;4.07;;;17.90;99.90;;;;;;4979108;28;20045;-71
2023/07/01 09:45:18;;;;;;;4.72;4.43;;;17.80;99.90;;;;;;4984651;28;20077;-71
2023/07/01 09:47:44;;;;;;;6.07;5.68;;;18.00;99.90;;;;;;4991231;28;20138;-72
2023/07/01 09:50:24;;;;;;;5.60;5.20;;;17.90;99.90;;;;;;4979544;28;20173;-70
2023/07/01 09:52:52;;;;;;;4.63;4.22;;;17.80;99.90;;;;;;4986691;28;20573;-70
2023/07/01 09:55:18;;;;;;;6.90;6.32;;;17.70;99.90;;;;;;4976978;28;20584;-70
2023/07/01 09:57:44;;;;;;;6.03;5.63;;;17.90;99.90;;;;;;4988405;28;20046;-71
2023/07/01 10:00:16;;;;;;;4.88;4.57;;;17.90;99.90;;;;;;4976120;28;20065;-71
2023/07/01 10:02:46;;;;;;;4.50;4.17;;;17.70;99.90;;;;;;4977151;28;20039;-70
2023/07/01 10:05:13;;;;;;;5.63;5.22;;;17.70;99.90;;;;;;4972820;28;20038;-70
2023/07/01 10:07:42;;;;;;;5.95;5.53;;;17.70;99.90;;;;;;4974909;28;20062;-72
2023/07/01 10:10:17;;;;;;;6.07;5.68;;;17.90;99.90;;;;;;4972993;28;20824;-71
2023/07/01 10:12:45;;;;;;;6.78;6.18;;;17.80;99.90;;;;;;4981141;28;20053;-72
2023/07/01 10:15:13;;;;;;;5.63;5.22;;;18.00;99.90;;;;;;4990816;28;20494;-71
2023/07/01 10:17:50;;;;;;;7.30;6.70;;;17.80;99.90;;;;;;4980607;28;20042;-71
2023/07/01 10:20:32;;;;;;;7.10;6.60;;;18.10;99.90;;;;;;4982981;28;20058;-71
2023/07/01 10:23:07;;;;;;;6.55;6.13;;;18.00;99.90;;;;;;4987000;28;20566;-71
2023/07/01 10:25:35;;;;;;;7.90;7.15;;;18.00;99.90;;;;;;4982430;28;20276;-70
2023/07/01 10:28:01;;;;;;;5.43;5.03;;;18.10;99.90;;;;;;4980649;28;20585;-71
2023/07/01 10:30:47;;;;;;;7.15;6.65;;;18.00;99.90;;;;;;4979445;28;20058;-70
2023/07/01 10:33:35;;;;;;;5.88;5.38;;;17.90;99.90;;;;;;4978895;28;20053;-72
2023/07/01 10:36:05;;;;;;;5.88;5.43;;;18.20;99.90;;;;;;4979002;28;20053;-71
2023/07/01 10:38:31;;;;;;;6.70;6.10;;;17.70;99.90;;;;;;4981426;28;20092;-72
2023/07/01 10:40:58;;;;;;;5.40;4.40;;;18.00;99.90;;;;;;4980437;28;20049;-72
2023/07/01 10:43:26;;;;;;;2.85;2.60;;;17.90;99.90;;;;;;4980666;28;20046;-73
2023/07/01 10:46:12;;;;;;;4.35;3.42;;;17.80;99.90;;;;;;4979564;28;20078;-72
2023/07/01 10:49:02;;;;;;;3.55;3.25;;;17.70;99.90;;;;;;4962904;28;20054;-72
2023/07/01 10:51:31;;;;;;;5.45;4.18;;;17.60;99.90;;;;;;4969782;28;20060;-71
2023/07/01 10:54:02;;;;;;;3.42;3.15;;;17.70;99.90;;;;;;4977290;28;20129;-72
2023/07/01 10:56:29;;;;;;;2.85;2.65;;;17.90;99.90;;;;;;4977987;28;20554;-70
2023/07/01 10:59:16;;;;;;;2.40;1.80;;;18.10;99.90;;;;;;4983267;28;20046;-74
2023/07/01 11:01:47;;;;;;;3.03;2.20;;;18.40;99.90;;;;;;4971576;28;20042;-72
2023/07/01 11:04:13;;;;;;;3.22;2.88;;;18.70;99.90;;;;;;4985259;28;20053;-74
2023/07/01 11:07:05;;;;;;;3.13;2.90;;;18.80;99.90;;;;;;4980770;28;20045;-72
2023/07/01 11:09:32;;;;;;;3.80;3.50;;;18.60;99.90;;;;;;4980319;28;20054;-74
2023/07/01 11:12:03;;;;;;;5.78;4.25;;;18.50;99.90;;;;;;4983303;28;20368;-72
2023/07/01 11:14:34;;;;;;;5.22;4.82;;;19.00;99.90;;;;;;4982687;28;20046;-72
2023/07/01 11:17:14;;;;;;;5.88;4.68;;;18.90;99.90;;;;;;4982468;28;20596;-72
2023/07/01 11:19:39;;;;;;;5.63;4.97;;;18.60;99.90;;;;;;4980140;28;20137;-73
2023/07/01 11:22:09;;;;;;;6.18;5.70;;;18.50;99.90;;;;;;4979968;28;20133;-71
2023/07/01 11:24:36;;;;;;;6.65;6.00;;;18.80;99.90;;;;;;4987028;28;20046;-71
2023/07/01 11:27:08;;;;;;;6.32;5.72;;;18.70;99.90;;;;;;4978571;28;20578;-73
2023/07/01 11:29:40;;;;;;;6.93;5.35;;;18.60;99.90;;;;;;4964170;28;20207;-74
2023/07/01 11:32:12;;;;;;;;;;;18.80;99.90;;;;;;4980150;28;20077;-73
2023/07/01 11:34:39;;;;;;;6.78;5.07;;;18.40;99.90;;;;;;4981071;28;20000;-73
2023/07/01 11:37:05;;;;;;;5.50;5.00;;;18.70;99.90;;;;;;4980080;28;20104;-73
2023/07/01 11:39:32;;;;;;;5.93;5.43;;;18.60;99.90;;;;;;4981100;28;20547;-73
2023/07/01 11:42:02;;;;;;;5.82;5.22;;;18.70;99.90;;;;;;4989181;28;20042;-74
2023/07/01 11:44:32;;;;;;;6.20;5.70;;;19.10;99.90;;;;;;4976972;28;20619;-73
2023/07/01 11:46:57;;;;;;;6.88;5.53;;;18.80;99.90;;;;;;4981139;28;20042;-72
2023/07/01 11:49:29;;;;;;;6.10;5.60;;;19.10;99.90;;;;;;4978631;28;20101;-71
2023/07/01 11:51:57;;;;;;;7.10;6.40;;;19.30;99.90;;;;;;4985540;28;20046;-73
2023/07/01 11:54:39;;;;;;;6.30;5.75;;;19.50;99.90;;;;;;4978840;28;20038;-76
2023/07/01 11:57:22;;;;;;;7.60;6.90;;;19.60;99.90;;;;;;4978003;28;20046;-73
2023/07/01 11:59:54;;;;;;;6.97;6.28;;;19.70;99.90;;;;;;4975356;28;20049;-74
2023/07/01 12:02:30;;;;;;;7.03;6.43;;;19.40;99.90;;;;;;4974103;28;20063;-73
2023/07/01 12:04:56;;;;;;;7.97;6.60;;;19.30;99.90;;;;;;4983315;28;20564;-73
2023/07/01 12:07:22;;;;;;;6.57;6.00;;;19.50;99.90;;;;;;4975702;28;20438;-73
2023/07/01 12:09:48;;;;;;;6.47;5.85;;;19.30;99.90;;;;;;4981820;28;20082;-72
2023/07/01 12:12:18;;;;;;;11.32;7.50;;;18.90;99.90;;;;;;4981534;28;20489;-74
2023/07/01 12:14:45;;;;;;;7.50;6.40;;;19.10;99.90;;;;;;4979631;28;20488;-74
2023/07/01 12:17:25;;;;;;;7.13;6.43;;;19.10;99.90;;;;;;4980910;28;20042;-73
2023/07/01 12:19:51;;;;;;;7.63;6.30;;;19.30;99.90;;;;;;4958727;28;20558;-73
2023/07/01 12:22:17;;;;;;;6.38;5.82;;;19.70;99.90;;;;;;4976472;28;20034;-74
2023/07/01 12:24:43;;;;;;;7.10;6.50;;;20.10;99.90;;;;;;4978929;28;20709;-73
2023/07/01 12:27:08;;;;;;;7.25;6.55;;;20.30;99.90;;;;;;4981447;28;20077;-74
2023/07/01 12:29:34;;;;;;;8.23;6.53;;;20.20;99.90;;;;;;4979659;28;20061;-74
2023/07/01 12:32:00;;;;;;;5.30;4.80;;;20.30;99.90;;;;;;4980627;28;20054;-71
2023/07/01 12:34:26;;;;;;;5.53;5.03;;;20.00;99.90;;;;;;4976397;28;20084;-74
2023/07/01 12:36:52;;;;;;;5.75;5.00;;;20.10;99.90;;;;;;4975051;28;20035;-73
2023/07/01 12:39:18;;;;;;;6.43;4.50;;;20.00;99.90;;;;;;4979057;28;20057;-72
2023/07/01 12:41:47;;;;;;;4.85;4.32;;;20.00;99.90;;;;;;4985946;28;20589;-73
2023/07/01 12:44:14;;;;;;;6.60;4.20;;;20.10;99.90;;;;;;4982564;28;20137;-73
2023/07/01 12:46:43;;;;;;;4.97;4.35;;;20.40;99.90;;;;;;4979374;28;20120;-72
2023/07/01 12:49:12;;;;;;;6.55;4.95;;;20.60;80.80;;;;;;4982500;28;20132;-72
2023/07/01 12:51:40;;;;;;;5.43;4.22;;;20.60;1.00;;;;;;4982297;28;20565;-72